createdAt,value
2023-02-19T00:01:54.481Z,99.90
2023-02-19T00:04:24.144Z,99.90
2023-02-19T00:06:54.432Z,99.90
2023-02-19T00:09:24.060Z,99.90
2023-02-19T00:11:52.953Z,99.90
2023-02-19T00:14:22.473Z,99.90
2023-02-19T00:16:51.287Z,99.90
2023-02-19T00:19:22.245Z,99.90
2023-02-19T00:21:52.811Z,99.90
2023-02-19T00:24:24.702Z,99.90
2023-02-19T00:26:52.713Z,99.90
2023-02-19T00:29:22.676Z,99.90
2023-02-19T00:31:52.045Z,99.90
2023-02-19T00:34:20.493Z,99.90
2023-02-19T00:36:48.513Z,99.90
2023-02-19T00:39:18.604Z,99.90
2023-02-19T00:41:51.440Z,99.90
2023-02-19T00:44:31.770Z,99.90
2023-02-19T00:46:59.768Z,99.90
2023-02-19T00:49:27.725Z,99.90
2023-02-19T00:52:04.077Z,99.90
2023-02-19T00:54:32.724Z,99.90
2023-02-19T00:57:02.047Z,99.90
2023-02-19T00:59:30.725Z,99.90
2023-02-19T01:01:58.954Z,99.90
2023-02-19T01:04:26.997Z,99.90
2023-02-19T01:06:55.153Z,99.90
2023-02-19T01:09:33.458Z,99.90
2023-02-19T01:12:08.363Z,99.90
2023-02-19T01:14:37.125Z,99.90
2023-02-19T01:17:16.286Z,99.90
2023-02-19T01:19:44.317Z,99.90
2023-02-19T01:22:21.503Z,99.90
2023-02-19T01:24:49.531Z,99.90
2023-02-19T01:27:20.064Z,99.90
2023-02-19T01:29:48.072Z,99.90
2023-02-19T01:32:45.047Z,99.90
2023-02-19T01:35:13.120Z,99.90
2023-02-19T01:37:41.105Z,99.90
2023-02-19T01:40:10.181Z,99.90
2023-02-19T01:42:51.816Z,99.90
2023-02-19T01:45:30.282Z,99.90
2023-02-19T01:48:03.618Z,99.90
2023-02-19T01:50:36.877Z,99.90
2023-02-19T01:53:07.936Z,99.90
2023-02-19T01:55:36.828Z,99.90
2023-02-19T01:58:07.158Z,99.90
2023-02-19T02:00:35.825Z,99.90
2023-02-19T02:03:05.134Z,99.90
2023-02-19T02:05:43.449Z,99.90
2023-02-19T02:08:29.937Z,99.90
2023-02-19T02:11:04.775Z,99.90
2023-02-19T02:13:36.012Z,99.90
2023-02-19T02:16:29.133Z,99.90
2023-02-19T02:19:07.246Z,99.90
2023-02-19T02:21:58.054Z,99.90
2023-02-19T02:24:45.962Z,99.90
2023-02-19T02:27:29.385Z,99.90
2023-02-19T02:30:25.370Z,99.90
2023-02-19T02:33:01.450Z,99.90
2023-02-19T02:35:35.421Z,99.90
2023-02-19T02:38:31.386Z,99.90
2023-02-19T02:40:59.906Z,99.90
2023-02-19T02:43:58.774Z,99.90
2023-02-19T02:46:33.697Z,99.90
2023-02-19T02:49:06.346Z,99.90
2023-02-19T02:51:37.465Z,99.90
2023-02-19T02:54:26.433Z,99.90
2023-02-19T02:56:56.742Z,99.90
2023-02-19T02:59:27.154Z,99.90
2023-02-19T03:02:12.016Z,99.90
2023-02-19T03:05:06.389Z,99.90
2023-02-19T03:07:39.648Z,99.90
2023-02-19T03:10:11.086Z,99.90
2023-02-19T03:13:00.160Z,99.90
2023-02-19T03:15:51.708Z,99.90
2023-02-19T03:18:40.938Z,99.90
2023-02-19T03:21:22.822Z,99.90
2023-02-19T03:24:09.304Z,99.90
2023-02-19T03:26:55.524Z,99.90
2023-02-19T03:29:27.108Z,99.90
2023-02-19T03:31:58.933Z,99.90
2023-02-19T03:34:33.985Z,99.90
2023-02-19T03:37:07.856Z,99.90
2023-02-19T03:39:44.286Z,99.90
2023-02-19T03:42:26.034Z,99.90
2023-02-19T03:45:16.171Z,99.90
2023-02-19T03:47:50.307Z,99.90
2023-02-19T03:50:22.643Z,99.90
2023-02-19T03:53:00.737Z,99.90
2023-02-19T03:55:33.790Z,99.90
2023-02-19T03:58:08.625Z,99.90
2023-02-19T04:00:41.298Z,99.90
2023-02-19T04:03:17.173Z,99.90
2023-02-19T04:05:52.180Z,99.90
2023-02-19T04:08:26.707Z,99.90
2023-02-19T04:10:55.728Z,99.90
2023-02-19T04:13:28.150Z,99.90
2023-02-19T04:16:05.973Z,99.90
2023-02-19T04:18:38.775Z,99.90
2023-02-19T04:21:10.292Z,99.90
2023-02-19T04:23:44.502Z,99.90
2023-02-19T04:26:13.660Z,99.90
2023-02-19T04:28:43.702Z,99.90
2023-02-19T04:31:31.510Z,99.90
2023-02-19T04:33:59.533Z,99.90
2023-02-19T04:36:28.908Z,99.90
2023-02-19T04:38:57.033Z,99.90
2023-02-19T04:41:25.049Z,99.90
2023-02-19T04:43:53.075Z,99.90
2023-02-19T04:46:21.602Z,99.90
2023-02-19T04:48:49.665Z,99.90
2023-02-19T04:51:17.711Z,99.90
2023-02-19T04:53:47.073Z,99.90
2023-02-19T04:56:31.479Z,99.90
2023-02-19T04:58:59.702Z,99.90
2023-02-19T05:01:27.837Z,99.90
2023-02-19T05:03:55.857Z,99.90
2023-02-19T05:06:23.854Z,99.90
2023-02-19T05:08:53.180Z,99.90
2023-02-19T05:11:21.196Z,99.90
2023-02-19T05:13:49.209Z,99.90
2023-02-19T05:16:17.667Z,99.90
2023-02-19T05:18:47.169Z,99.90
2023-02-19T05:21:15.613Z,99.90
2023-02-19T05:23:43.797Z,99.90
2023-02-19T05:26:17.086Z,99.90
2023-02-19T05:28:51.163Z,99.90
2023-02-19T05:31:19.550Z,99.90
2023-02-19T05:33:51.144Z,99.90
2023-02-19T05:36:22.053Z,99.90
2023-02-19T05:38:54.047Z,99.90
2023-02-19T05:41:25.649Z,99.90
2023-02-19T05:43:54.178Z,99.90
2023-02-19T05:46:24.070Z,99.90
2023-02-19T05:48:53.957Z,99.90
2023-02-19T05:51:23.339Z,99.90
2023-02-19T05:53:51.789Z,99.90
2023-02-19T05:56:29.073Z,99.90
2023-02-19T05:58:57.486Z,99.90
2023-02-19T06:01:28.458Z,99.90
2023-02-19T06:03:57.624Z,99.90
2023-02-19T06:06:26.845Z,99.90
2023-02-19T06:08:55.485Z,99.90
2023-02-19T06:11:25.432Z,99.90
2023-02-19T06:13:56.479Z,99.90
2023-02-19T06:16:26.603Z,99.90
2023-02-19T06:18:54.667Z,99.90
2023-02-19T06:21:22.607Z,99.90
2023-02-19T06:23:50.590Z,99.90
2023-02-19T06:26:22.051Z,99.90
2023-02-19T06:28:53.408Z,99.90
2023-02-19T06:31:23.101Z,99.90
2023-02-19T06:33:51.564Z,99.90
2023-02-19T06:36:21.928Z,99.90
2023-02-19T06:38:50.298Z,99.90
2023-02-19T06:41:19.339Z,99.90
2023-02-19T06:43:47.575Z,99.90
2023-02-19T06:46:16.948Z,99.90
2023-02-19T06:48:45.988Z,99.90
2023-02-19T06:51:15.057Z,99.90
2023-02-19T06:53:43.161Z,99.90
2023-02-19T06:56:25.088Z,99.90
2023-02-19T06:58:53.337Z,99.90
2023-02-19T07:01:23.027Z,99.90
2023-02-19T07:03:53.705Z,99.90
2023-02-19T07:06:21.887Z,99.90
2023-02-19T07:08:50.116Z,99.90
2023-02-19T07:11:18.687Z,99.90
2023-02-19T07:13:56.606Z,99.90
2023-02-19T07:16:27.760Z,99.90
2023-02-19T07:18:57.953Z,99.90
2023-02-19T07:21:26.199Z,99.90
2023-02-19T07:23:54.506Z,99.90
2023-02-19T07:26:25.670Z,99.90
2023-02-19T07:29:00.593Z,99.90
2023-02-19T07:31:37.255Z,99.90
2023-02-19T07:34:05.284Z,99.90
2023-02-19T07:36:33.258Z,99.90
2023-02-19T07:39:01.488Z,99.90
2023-02-19T07:41:29.555Z,99.90
2023-02-19T07:43:57.611Z,99.90
2023-02-19T07:46:25.733Z,99.90
2023-02-19T07:48:55.183Z,99.90
2023-02-19T07:51:30.487Z,99.90
2023-02-19T07:53:58.960Z,99.90
2023-02-19T07:56:28.773Z,99.90
2023-02-19T07:58:56.795Z,99.90
2023-02-19T08:01:52.312Z,99.90
2023-02-19T08:04:21.962Z,99.90
2023-02-19T08:06:49.954Z,99.90
2023-02-19T08:09:23.981Z,99.90
2023-02-19T08:12:13.755Z,99.90
2023-02-19T08:14:43.832Z,99.90
2023-02-19T08:17:11.841Z,99.90
2023-02-19T08:19:41.331Z,99.90
2023-02-19T08:22:09.408Z,99.90
2023-02-19T08:24:41.147Z,99.90
2023-02-19T08:27:16.689Z,99.90
2023-02-19T08:29:55.742Z,99.90
2023-02-19T08:32:23.708Z,99.90
2023-02-19T08:34:53.057Z,99.90
2023-02-19T08:37:21.030Z,99.90
2023-02-19T08:39:49.009Z,99.90
2023-02-19T08:42:16.999Z,99.90
2023-02-19T08:44:44.980Z,99.90
2023-02-19T08:47:13.029Z,99.90
2023-02-19T08:49:40.990Z,99.90
2023-02-19T08:52:10.362Z,99.90
2023-02-19T08:54:38.505Z,99.90
2023-02-19T08:57:06.480Z,99.90
2023-02-19T08:59:34.465Z,99.90
2023-02-19T09:02:02.552Z,99.90
2023-02-19T09:04:37.740Z,99.90
2023-02-19T09:07:07.749Z,99.90
2023-02-19T09:09:45.463Z,99.90
2023-02-19T09:12:33.490Z,99.90
2023-02-19T09:15:01.732Z,99.90
2023-02-19T09:17:30.110Z,99.90
2023-02-19T09:20:02.180Z,99.90
2023-02-19T09:22:30.162Z,99.90
2023-02-19T09:24:59.540Z,99.90
2023-02-19T09:27:27.969Z,99.90
2023-02-19T09:30:05.847Z,99.90
2023-02-19T09:32:58.222Z,99.90
2023-02-19T09:35:26.252Z,99.90
2023-02-19T09:37:54.193Z,99.90
2023-02-19T09:40:23.817Z,99.90
2023-02-19T09:42:52.807Z,99.90
2023-02-19T09:45:24.892Z,99.90
2023-02-19T09:47:56.687Z,99.90
2023-02-19T09:50:33.765Z,99.90
2023-02-19T09:53:05.868Z,99.90
2023-02-19T09:55:36.991Z,99.90
2023-02-19T09:58:18.239Z,99.90
2023-02-19T10:00:49.774Z,99.90
2023-02-19T10:03:25.219Z,99.90
2023-02-19T10:05:54.966Z,99.90
2023-02-19T10:08:22.950Z,99.90
2023-02-19T10:10:53.762Z,99.90
2023-02-19T10:13:23.914Z,99.90
2023-02-19T10:15:55.649Z,99.90
2023-02-19T10:18:25.687Z,99.90
2023-02-19T10:20:54.537Z,99.90
2023-02-19T10:23:23.617Z,99.90
2023-02-19T10:25:57.100Z,99.90
2023-02-19T10:28:29.894Z,99.90
2023-02-19T10:31:00.419Z,99.90
2023-02-19T10:33:29.280Z,99.90
2023-02-19T10:35:59.128Z,99.90
2023-02-19T10:38:32.221Z,99.90
2023-02-19T10:41:05.991Z,99.90
2023-02-19T10:43:41.714Z,99.90
2023-02-19T10:46:17.874Z,99.90
2023-02-19T10:48:51.672Z,99.90
2023-02-19T10:51:22.926Z,99.90
2023-02-19T10:53:52.618Z,99.90
2023-02-19T10:56:27.191Z,99.90
2023-02-19T10:58:55.364Z,99.90
2023-02-19T11:01:28.068Z,99.90
2023-02-19T11:04:16.819Z,99.90
2023-02-19T11:06:45.821Z,99.90
2023-02-19T11:09:26.606Z,99.90
2023-02-19T11:11:57.854Z,99.90
2023-02-19T11:14:27.786Z,99.90
2023-02-19T11:16:58.061Z,99.90
2023-02-19T11:19:36.379Z,99.90
2023-02-19T11:22:20.185Z,99.90
2023-02-19T11:24:50.610Z,99.90
2023-02-19T11:27:22.722Z,99.90
2023-02-19T11:29:50.826Z,99.90
2023-02-19T11:32:27.723Z,99.90
2023-02-19T11:35:17.727Z,99.90
2023-02-19T11:37:57.522Z,99.90
2023-02-19T11:40:38.920Z,99.90
2023-02-19T11:43:21.231Z,99.90
2023-02-19T11:45:58.992Z,99.90
2023-02-19T11:48:46.652Z,99.90
2023-02-19T11:51:31.101Z,99.90
2023-02-19T11:54:13.213Z,99.90
2023-02-19T11:56:45.091Z,99.90
2023-02-19T11:59:20.758Z,99.90
2023-02-19T12:02:17.837Z,99.90
2023-02-19T12:05:31.450Z,99.90
2023-02-19T12:08:29.600Z,99.90
2023-02-19T12:11:26.726Z,99.90
2023-02-19T12:14:09.966Z,99.90
2023-02-19T12:16:45.647Z,99.90
2023-02-19T12:19:24.465Z,99.90
2023-02-19T12:22:12.773Z,99.90
2023-02-19T12:25:17.434Z,99.90
2023-02-19T12:27:56.787Z,99.90
2023-02-19T12:30:34.541Z,99.90
2023-02-19T12:33:30.471Z,99.90
2023-02-19T12:36:09.669Z,99.90
2023-02-19T12:38:44.836Z,99.90
2023-02-19T12:41:21.820Z,99.90
2023-02-19T12:43:56.433Z,99.90
2023-02-19T12:46:30.338Z,99.90
2023-02-19T12:49:06.069Z,99.90
2023-02-19T12:51:41.719Z,99.90
2023-02-19T12:54:15.899Z,99.90
2023-02-19T12:56:49.038Z,99.90
2023-02-19T12:59:25.163Z,99.90
2023-02-19T13:01:58.811Z,99.90
2023-02-19T13:04:36.274Z,99.90
2023-02-19T13:07:08.226Z,99.90
2023-02-19T13:09:39.201Z,99.90
2023-02-19T13:12:13.727Z,99.90
2023-02-19T13:14:44.449Z,99.90
2023-02-19T13:17:22.430Z,99.90
2023-02-19T13:19:57.569Z,99.90
2023-02-19T13:22:51.412Z,99.90
2023-02-19T13:25:20.608Z,99.90
2023-02-19T13:28:21.203Z,99.90
2023-02-19T13:31:02.768Z,99.90
2023-02-19T13:33:44.927Z,99.90
2023-02-19T13:36:17.461Z,99.90
2023-02-19T13:38:48.844Z,99.90
2023-02-19T13:41:29.513Z,99.90
2023-02-19T13:44:00.339Z,98.60
2023-02-19T13:46:39.486Z,96.20
2023-02-19T13:49:43.326Z,93.30
2023-02-19T13:52:42.951Z,93.10
2023-02-19T13:55:46.735Z,91.80
2023-02-19T13:58:52.096Z,90.50
2023-02-19T14:01:20.975Z,88.70
2023-02-19T14:03:54.757Z,87.20
2023-02-19T14:06:28.951Z,84.60
2023-02-19T14:09:00.336Z,81.80
2023-02-19T14:12:03.345Z,82.20
2023-02-19T14:14:37.653Z,83.80
2023-02-19T14:17:21.773Z,85.30
2023-02-19T14:19:53.486Z,85.50
2023-02-19T14:23:07.569Z,85.20
2023-02-19T14:25:54.830Z,86.00
2023-02-19T14:28:43.916Z,86.90
2023-02-19T14:31:33.756Z,84.50
2023-02-19T14:34:05.065Z,85.20
2023-02-19T14:36:44.037Z,87.40
2023-02-19T14:39:18.071Z,85.90
2023-02-19T14:41:51.485Z,87.20
2023-02-19T14:44:23.384Z,88.50
2023-02-19T14:46:58.711Z,89.00
2023-02-19T14:49:30.941Z,90.70
2023-02-19T14:52:01.485Z,90.40
2023-02-19T14:54:39.689Z,91.00
2023-02-19T14:57:16.830Z,91.40
2023-02-19T14:59:55.139Z,91.70
2023-02-19T15:02:25.836Z,91.70
2023-02-19T15:04:54.503Z,94.00
2023-02-19T15:07:25.534Z,93.70
2023-02-19T15:09:57.030Z,94.30
2023-02-19T15:12:29.014Z,94.40
2023-02-19T15:15:00.745Z,95.00
2023-02-19T15:17:30.696Z,95.50
2023-02-19T15:20:02.919Z,95.80
2023-02-19T15:22:32.516Z,96.40
2023-02-19T15:25:02.507Z,96.10
2023-02-19T15:27:32.865Z,96.10
2023-02-19T15:30:00.898Z,96.50
2023-02-19T15:32:29.534Z,96.80
2023-02-19T15:34:59.012Z,96.70
2023-02-19T15:37:30.358Z,96.70
2023-02-19T15:40:02.244Z,97.00
2023-02-19T15:42:34.678Z,98.30
2023-02-19T15:45:05.768Z,98.90
2023-02-19T15:47:39.154Z,99.70
2023-02-19T15:50:11.646Z,99.30
2023-02-19T15:52:47.869Z,99.10
2023-02-19T15:55:32.964Z,98.60
2023-02-19T15:58:09.615Z,98.60
2023-02-19T16:00:41.910Z,97.10
2023-02-19T16:03:18.509Z,96.60
2023-02-19T16:05:47.569Z,97.20
2023-02-19T16:08:22.111Z,97.30
2023-02-19T16:10:58.536Z,97.40
2023-02-19T16:13:30.458Z,98.30
2023-02-19T16:16:03.613Z,98.80
2023-02-19T16:18:32.088Z,98.90
2023-02-19T16:21:00.924Z,98.80
2023-02-19T16:23:28.981Z,99.20
2023-02-19T16:26:01.941Z,99.10
2023-02-19T16:28:37.625Z,99.40
2023-02-19T16:31:08.133Z,98.90
2023-02-19T16:33:39.826Z,98.90
2023-02-19T16:36:22.845Z,98.60
2023-02-19T16:39:01.722Z,98.30
2023-02-19T16:41:29.990Z,98.70
2023-02-19T16:44:06.461Z,98.90
2023-02-19T16:46:34.562Z,99.10
2023-02-19T16:49:02.500Z,99.40
2023-02-19T16:51:30.538Z,99.10
2023-02-19T16:53:58.509Z,98.90
2023-02-19T16:56:28.822Z,98.90
2023-02-19T16:58:56.768Z,99.90
2023-02-19T17:01:27.198Z,99.90
2023-02-19T17:03:59.612Z,99.90
2023-02-19T17:06:28.106Z,99.90
2023-02-19T17:08:56.065Z,99.90
2023-02-19T17:11:24.049Z,99.90
2023-02-19T17:13:52.225Z,99.90
2023-02-19T17:16:21.742Z,99.90
2023-02-19T17:18:51.942Z,99.90
2023-02-19T17:21:22.940Z,99.90
2023-02-19T17:23:51.071Z,99.90
2023-02-19T17:26:20.881Z,99.90
2023-02-19T17:28:49.156Z,99.90
2023-02-19T17:31:17.947Z,99.90
2023-02-19T17:33:46.805Z,99.90
2023-02-19T17:36:20.121Z,99.90
2023-02-19T17:38:48.192Z,99.90
2023-02-19T17:41:16.372Z,99.90
2023-02-19T17:43:44.375Z,99.90
2023-02-19T17:46:16.220Z,99.90
2023-02-19T17:48:44.242Z,99.90
2023-02-19T17:51:13.361Z,99.90
2023-02-19T17:53:43.088Z,99.90
2023-02-19T17:56:16.593Z,99.90
2023-02-19T17:58:44.570Z,99.90
2023-02-19T18:01:12.983Z,99.90
2023-02-19T18:03:41.734Z,99.90
2023-02-19T18:06:09.861Z,99.90
2023-02-19T18:08:37.811Z,99.90
2023-02-19T18:11:08.581Z,99.90
2023-02-19T18:13:36.562Z,99.90
2023-02-19T18:16:06.106Z,99.90
2023-02-19T18:18:34.144Z,99.90
2023-02-19T18:21:02.101Z,99.90
2023-02-19T18:23:30.061Z,99.90
2023-02-19T18:25:58.018Z,99.90
2023-02-19T18:28:28.195Z,99.90
2023-02-19T18:30:56.334Z,99.90
2023-02-19T18:33:24.336Z,99.90
2023-02-19T18:35:52.304Z,99.90
2023-02-19T18:38:20.836Z,99.90
2023-02-19T18:40:48.792Z,99.90
2023-02-19T18:43:16.808Z,99.90
2023-02-19T18:45:46.627Z,99.90
2023-02-19T18:48:14.617Z,99.90
2023-02-19T18:50:42.878Z,99.90
2023-02-19T18:53:11.493Z,99.90
2023-02-19T18:55:39.467Z,99.90
2023-02-19T18:58:07.694Z,99.90
2023-02-19T19:00:35.793Z,99.90
2023-02-19T19:03:06.443Z,99.90
2023-02-19T19:05:34.412Z,99.90
2023-02-19T19:08:02.433Z,99.90
2023-02-19T19:10:31.298Z,99.90
2023-02-19T19:12:59.499Z,99.90
2023-02-19T19:15:27.643Z,99.90
2023-02-19T19:17:55.923Z,99.90
2023-02-19T19:20:25.442Z,99.90
2023-02-19T19:22:54.159Z,99.90
2023-02-19T19:25:23.699Z,99.90
2023-02-19T19:27:55.634Z,99.90
2023-02-19T19:30:23.835Z,99.90
2023-02-19T19:32:53.876Z,99.90
2023-02-19T19:35:22.642Z,99.90
2023-02-19T19:37:51.967Z,99.90
2023-02-19T19:40:20.510Z,99.90
2023-02-19T19:42:51.376Z,99.90
2023-02-19T19:45:19.661Z,99.90
2023-02-19T19:47:48.692Z,99.90
2023-02-19T19:50:18.206Z,99.90
2023-02-19T19:52:46.219Z,99.90
2023-02-19T19:55:16.177Z,99.90
2023-02-19T19:57:44.387Z,99.90
2023-02-19T20:00:17.632Z,99.90
2023-02-19T20:02:46.500Z,99.90
2023-02-19T20:05:15.519Z,99.90
2023-02-19T20:07:43.534Z,99.90
2023-02-19T20:10:13.009Z,99.90
2023-02-19T20:12:47.903Z,99.90
2023-02-19T20:15:21.131Z,99.90
2023-02-19T20:17:49.414Z,99.90
2023-02-19T20:20:18.859Z,99.90
2023-02-19T20:22:46.975Z,99.90
2023-02-19T20:25:16.051Z,99.90
2023-02-19T20:28:07.490Z,99.90
2023-02-19T20:30:37.124Z,99.90
2023-02-19T20:33:05.252Z,99.90
2023-02-19T20:35:33.849Z,99.90
2023-02-19T20:38:01.848Z,99.90
2023-02-19T20:40:31.274Z,99.90
2023-02-19T20:43:00.847Z,99.90
2023-02-19T20:45:31.200Z,99.90
2023-02-19T20:47:59.218Z,99.90
2023-02-19T20:50:27.460Z,99.90
2023-02-19T20:52:55.757Z,99.90
2023-02-19T20:55:25.948Z,99.90
2023-02-19T20:57:54.151Z,99.90
2023-02-19T21:00:23.209Z,99.90
2023-02-19T21:02:52.692Z,99.90
2023-02-19T21:05:23.571Z,99.90
2023-02-19T21:07:51.745Z,99.90
2023-02-19T21:10:20.040Z,99.90
2023-02-19T21:12:48.062Z,99.90
2023-02-19T21:15:16.264Z,99.90
2023-02-19T21:17:46.638Z,99.90
2023-02-19T21:20:17.938Z,99.90
2023-02-19T21:22:46.249Z,99.90
2023-02-19T21:25:21.582Z,99.90
2023-02-19T21:27:49.555Z,99.90
2023-02-19T21:30:18.005Z,99.90
2023-02-19T21:32:48.753Z,99.90
2023-02-19T21:35:18.510Z,99.90
2023-02-19T21:37:46.624Z,99.90
2023-02-19T21:40:15.321Z,99.90
2023-02-19T21:42:43.495Z,99.90
2023-02-19T21:45:11.920Z,99.90
2023-02-19T21:47:40.154Z,99.90
2023-02-19T21:50:09.430Z,99.90
2023-02-19T21:52:39.047Z,99.90
2023-02-19T21:55:07.805Z,99.90
2023-02-19T21:57:35.796Z,99.90
2023-02-19T22:00:05.421Z,99.90
2023-02-19T22:02:33.586Z,99.90
2023-02-19T22:05:18.064Z,99.90
2023-02-19T22:07:48.556Z,99.90
2023-02-19T22:10:16.774Z,99.90
2023-02-19T22:12:44.856Z,99.90
2023-02-19T22:15:12.927Z,99.90
2023-02-19T22:17:41.065Z,99.90
2023-02-19T22:20:09.542Z,99.90
2023-02-19T22:22:44.421Z,99.90
2023-02-19T22:25:13.978Z,99.90
2023-02-19T22:27:42.327Z,99.90
2023-02-19T22:30:11.340Z,99.90
2023-02-19T22:32:41.395Z,99.90
2023-02-19T22:35:09.678Z,99.90
2023-02-19T22:37:38.870Z,99.90
2023-02-19T22:40:08.135Z,99.90
2023-02-19T22:42:38.592Z,99.90
2023-02-19T22:45:07.064Z,99.90
2023-02-19T22:47:35.004Z,99.90
2023-02-19T22:50:03.139Z,99.90
2023-02-19T22:52:31.124Z,99.90
2023-02-19T22:54:59.850Z,99.90
2023-02-19T22:57:28.722Z,99.90
2023-02-19T22:59:58.044Z,99.90
2023-02-19T23:02:25.988Z,99.90
2023-02-19T23:04:54.264Z,99.90
2023-02-19T23:07:22.240Z,99.90
2023-02-19T23:09:50.189Z,99.90
2023-02-19T23:12:18.238Z,99.90
2023-02-19T23:14:47.666Z,99.90
2023-02-19T23:17:17.010Z,99.90
2023-02-19T23:19:44.998Z,99.90
2023-02-19T23:22:13.164Z,99.90
2023-02-19T23:24:41.101Z,99.90
2023-02-19T23:27:09.113Z,99.90
2023-02-19T23:29:37.168Z,99.90
2023-02-19T23:32:05.469Z,99.90
2023-02-19T23:34:34.877Z,99.90
2023-02-19T23:37:11.750Z,99.90
2023-02-19T23:39:39.787Z,99.90
2023-02-19T23:42:07.799Z,99.90
2023-02-19T23:44:35.938Z,99.90
2023-02-19T23:47:03.891Z,99.90
2023-02-19T23:49:31.842Z,99.90
2023-02-19T23:52:01.170Z,99.90
2023-02-19T23:54:40.615Z,99.90
2023-02-19T23:57:08.692Z,99.90
2023-02-19T23:59:36.651Z,99.90
